Time;durP1;ratioP1;P1;durP2;ratioP2;P2;SDS_P1;SDS_P2;PMS_P1;PMS_P2;Temp;Humidity;BMP_temperature;BMP_pressure;BME280_temperature;BME280_humidity;BME280_pressure;Samples;Min_cycle;Max_cycle;Signal;HPM_P1;HPM_P2
2022/11/26 00:02:20;;;;;;;30.98;14.05;;;;;;;;;;5094782;28;20194;-73
2022/11/26 00:04:46;;;;;;;37.20;14.82;;;;;;;;;;5094931;28;20028;-79
2022/11/26 00:07:14;;;;;;;32.70;14.05;;;;;;;;;;5094393;28;20536;-72
2022/11/26 00:09:39;;;;;;;34.50;14.60;;;;;;;;;;5094757;28;20038;-69
2022/11/26 00:12:13;;;;;;;44.30;14.73;;;;;;;;;;5076379;28;20489;-69
2022/11/26 00:14:38;;;;;;;35.78;15.02;;;;;;;;;;5094266;28;20059;-69
2022/11/26 00:17:04;;;;;;;38.65;14.55;;;;;;;;;;5094427;28;20493;-70
2022/11/26 00:19:29;;;;;;;39.10;15.50;;;;;;;;;;5094552;28;20028;-78
2022/11/26 00:21:55;;;;;;;40.90;15.23;;;;;;;;;;5094492;28;20051;-72
2022/11/26 00:24:28;;;;;;;39.88;14.60;;;;;;;;;;5094512;28;20073;-80
2022/11/26 00:26:56;;;;;;;37.63;14.90;;;;;;;;;;5093172;28;20020;-80
2022/11/26 00:29:22;;;;;;;32.35;14.10;;;;;;;;;;5094672;28;20032;-80
2022/11/26 00:31:47;;;;;;;39.17;15.25;;;;;;;;;;5094260;28;20428;-81
2022/11/26 00:34:13;;;;;;;38.97;15.13;;;;;;;;;;5094442;28;20028;-72
2022/11/26 00:36:38;;;;;;;40.38;15.07;;;;;;;;;;5093852;28;20059;-80
2022/11/26 00:39:10;;;;;;;39.58;15.07;;;;;;;;;;5076002;28;20030;-79
2022/11/26 00:41:37;;;;;;;38.38;14.98;;;;;;;;;;5094192;28;20389;-73
2022/11/26 00:44:03;;;;;;;37.03;15.02;;;;;;;;;;5094000;28;20020;-78
2022/11/26 00:46:29;;;;;;;43.53;15.27;;;;;;;;;;5093879;28;20111;-69
2022/11/26 00:48:55;;;;;;;36.00;13.93;;;;;;;;;;5093929;28;20103;-70
2022/11/26 00:51:27;;;;;;;34.25;14.18;;;;;;;;;;5093593;28;20031;-69
2022/11/26 00:53:55;;;;;;;37.53;14.23;;;;;;;;;;5093778;28;20028;-72
2022/11/26 00:56:21;;;;;;;40.10;15.57;;;;;;;;;;5093710;28;20389;-76
2022/11/26 00:58:49;;;;;;;39.30;14.90;;;;;;;;;;5093822;28;20073;-72
2022/11/26 01:01:20;;;;;;;39.22;14.40;;;;;;;;;;5093598;28;20059;-69
2022/11/26 01:03:46;;;;;;;35.38;13.82;;;;;;;;;;5093590;28;20190;-71
2022/11/26 01:06:25;;;;;;;40.92;15.25;;;;;;;;;;5093356;28;20536;-70
2022/11/26 01:08:51;;;;;;;37.15;13.95;;;;;;;;;;5093807;28;20461;-71
2022/11/26 01:11:19;;;;;;;38.53;15.07;;;;;;;;;;5093341;28;20056;-71
2022/11/26 01:13:46;;;;;;;31.90;13.20;;;;;;;;;;5093124;28;20048;-70
2022/11/26 01:16:23;;;;;;;34.60;14.05;;;;;;;;;;5092014;28;20028;-70
2022/11/26 01:18:50;;;;;;;36.50;14.38;;;;;;;;;;5092556;28;20032;-69
2022/11/26 01:21:17;;;;;;;36.03;14.98;;;;;;;;;;5075128;28;20024;-75
2022/11/26 01:23:43;;;;;;;35.67;14.77;;;;;;;;;;5093329;28;20028;-68
2022/11/26 01:26:21;;;;;;;40.17;14.38;;;;;;;;;;5093081;28;20020;-68
2022/11/26 01:28:47;;;;;;;31.55;14.73;;;;;;;;;;5093206;28;20430;-71
2022/11/26 01:31:21;;;;;;;44.70;15.85;;;;;;;;;;5093140;28;20028;-68
2022/11/26 01:33:47;;;;;;;38.70;15.95;;;;;;;;;;5092887;28;21358;-71
2022/11/26 01:36:21;;;;;;;36.75;15.55;;;;;;;;;;5093014;28;20081;-68
2022/11/26 01:38:47;;;;;;;38.20;16.23;;;;;;;;;;5087909;28;20514;-69
2022/11/26 01:41:49;;;;;;;41.85;15.70;;;;;;;;;;5083720;28;20032;-70
2022/11/26 01:44:19;;;;;;;42.05;16.70;;;;;;;;;;5072790;28;20029;-69
2022/11/26 01:46:46;;;;;;;39.67;16.33;;;;;;;;;;5072571;28;20029;-69
2022/11/26 01:49:35;;;;;;;37.65;14.80;;;;;;;;;;5072427;28;20033;-69
2022/11/26 01:52:23;;;;;;;32.53;13.77;;;;;;;;;;5041885;28;20029;-68
2022/11/26 01:54:51;;;;;;;39.10;14.55;;;;;;;;;;5072616;28;20100;-68
2022/11/26 01:57:24;;;;;;;34.53;14.95;;;;;;;;;;5072310;28;20477;-68
2022/11/26 01:59:52;;;;;;;33.75;14.80;;;;;;;;;;5072529;28;20043;-68
2022/11/26 02:02:21;;;;;;;32.75;15.07;;;;;;;;;;5072255;28;20027;-68
2022/11/26 02:04:56;;;;;;;30.55;14.57;;;;;;;;;;5072373;28;20025;-67
2022/11/26 02:07:22;;;;;;;32.38;14.18;;;;;;;;;;5072485;28;20038;-68
2022/11/26 02:09:48;;;;;;;31.42;13.98;;;;;;;;;;5072499;28;20020;-78
2022/11/26 02:12:14;;;;;;;33.15;14.40;;;;;;;;;;5072412;28;20051;-79
2022/11/26 02:14:42;;;;;;;29.88;14.63;;;;;;;;;;5092432;28;20092;-80
2022/11/26 02:17:32;;;;;;;32.65;14.85;;;;;;;;;;5092474;28;20036;-79
2022/11/26 02:20:24;;;;;;;33.15;15.48;;;;;;;;;;5092831;28;20035;-72
2022/11/26 02:22:49;;;;;;;33.50;15.43;;;;;;;;;;5085478;28;20028;-78
2022/11/26 02:25:30;;;;;;;32.25;15.07;;;;;;;;;;5092626;28;20088;-79
2022/11/26 02:28:13;;;;;;;;;;;;;;;;;;5092892;28;20036;-79
2022/11/26 02:30:45;;;;;;;30.38;11.85;;;;;;;;;;5092292;28;19938;-78
2022/11/26 02:33:18;;;;;;;29.65;14.02;;;;;;;;;;5092426;28;20060;-78
2022/11/26 02:35:52;;;;;;;28.15;13.75;;;;;;;;;;5092794;28;20465;-76
2022/11/26 02:38:24;;;;;;;30.58;14.40;;;;;;;;;;5092651;28;20032;-79
2022/11/26 02:40:50;;;;;;;34.20;15.15;;;;;;;;;;5074648;28;20024;-73
2022/11/26 02:43:17;;;;;;;34.80;14.10;;;;;;;;;;5092623;28;20054;-76
2022/11/26 02:45:46;;;;;;;30.05;13.60;;;;;;;;;;5092639;28;20481;-72
2022/11/26 02:48:34;;;;;;;29.50;13.18;;;;;;;;;;5092694;28;20024;-78
2022/11/26 02:51:09;;;;;;;29.70;13.18;;;;;;;;;;5095283;28;20054;-79
2022/11/26 02:53:37;;;;;;;30.42;14.02;;;;;;;;;;5078371;28;20024;-77
2022/11/26 02:56:09;;;;;;;34.85;14.68;;;;;;;;;;5096267;28;20031;-75
2022/11/26 02:58:36;;;;;;;27.30;13.07;;;;;;;;;;5096271;28;20480;-79
2022/11/26 03:01:08;;;;;;;30.45;13.98;;;;;;;;;;5095935;28;20028;-79
2022/11/26 03:03:42;;;;;;;26.98;13.25;;;;;;;;;;5096160;28;20035;-79
2022/11/26 03:06:11;;;;;;;32.65;13.93;;;;;;;;;;5096259;28;20048;-79
2022/11/26 03:08:36;;;;;;;25.77;13.43;;;;;;;;;;5096183;28;20059;-74
2022/11/26 03:11:03;;;;;;;30.05;13.85;;;;;;;;;;5095914;28;20028;-73
2022/11/26 03:13:29;;;;;;;28.75;13.32;;;;;;;;;;5095420;28;20051;-73
2022/11/26 03:15:55;;;;;;;28.13;13.38;;;;;;;;;;5087185;28;20036;-75
2022/11/26 03:18:20;;;;;;;29.25;14.10;;;;;;;;;;5086658;28;20021;-69
2022/11/26 03:20:45;;;;;;;32.08;14.07;;;;;;;;;;5084529;28;20028;-71
2022/11/26 03:23:11;;;;;;;31.10;13.60;;;;;;;;;;5075534;28;20131;-69
2022/11/26 03:25:36;;;;;;;35.50;14.80;;;;;;;;;;5075406;28;20389;-68
2022/11/26 03:28:02;;;;;;;30.63;13.95;;;;;;;;;;5093406;28;20024;-70
2022/11/26 03:30:28;;;;;;;29.42;13.27;;;;;;;;;;5095568;28;20381;-74
2022/11/26 03:32:54;;;;;;;32.90;15.35;;;;;;;;;;5095616;28;20096;-69
2022/11/26 03:35:20;;;;;;;32.70;15.10;;;;;;;;;;5095782;28;20028;-74
2022/11/26 03:37:45;;;;;;;32.85;14.77;;;;;;;;;;5095428;28;20093;-69
2022/11/26 03:40:11;;;;;;;35.30;15.82;;;;;;;;;;5076779;28;20028;-68
2022/11/26 03:42:37;;;;;;;37.42;16.65;;;;;;;;;;5095127;28;20107;-68
2022/11/26 03:45:03;;;;;;;35.38;16.52;;;;;;;;;;5094435;28;20027;-68
2022/11/26 03:47:28;;;;;;;39.95;16.83;;;;;;;;;;5076325;28;20028;-68
2022/11/26 03:49:54;;;;;;;35.80;15.32;;;;;;;;;;5094925;28;20024;-67
2022/11/26 03:52:19;;;;;;;35.92;15.90;;;;;;;;;;5094540;28;20028;-67
2022/11/26 03:54:45;;;;;;;34.15;16.45;;;;;;;;;;5094824;28;20035;-69
2022/11/26 03:57:11;;;;;;;30.70;14.27;;;;;;;;;;5094740;28;20024;-74
2022/11/26 03:59:36;;;;;;;29.05;13.50;;;;;;;;;;5094987;28;20111;-69
2022/11/26 04:02:02;;;;;;;28.30;14.35;;;;;;;;;;5094385;28;20111;-70
2022/11/26 04:04:28;;;;;;;31.33;14.23;;;;;;;;;;5095035;28;20063;-70
2022/11/26 04:06:53;;;;;;;33.55;14.80;;;;;;;;;;5094989;28;20376;-73
2022/11/26 04:09:19;;;;;;;28.17;13.65;;;;;;;;;;5096371;28;20024;-69
2022/11/26 04:11:44;;;;;;;26.85;13.02;;;;;;;;;;5077160;28;20414;-70
2022/11/26 04:14:10;;;;;;;28.77;13.23;;;;;;;;;;5094715;28;20031;-71
2022/11/26 04:16:35;;;;;;;29.17;13.95;;;;;;;;;;5094327;28;20051;-72
2022/11/26 04:19:01;;;;;;;25.33;12.25;;;;;;;;;;5095792;28;20036;-75
2022/11/26 04:21:26;;;;;;;25.80;12.50;;;;;;;;;;5094334;28;20020;-68
2022/11/26 04:23:52;;;;;;;29.02;13.60;;;;;;;;;;5094304;28;20472;-76
2022/11/26 04:26:17;;;;;;;30.05;12.77;;;;;;;;;;5094091;28;20016;-72
2022/11/26 04:28:43;;;;;;;24.17;12.00;;;;;;;;;;5094205;28;20065;-78
2022/11/26 04:31:09;;;;;;;28.77;12.63;;;;;;;;;;5094445;28;20061;-73
2022/11/26 04:33:34;;;;;;;28.45;14.18;;;;;;;;;;5094444;28;20473;-73
2022/11/26 04:36:00;;;;;;;27.48;12.27;;;;;;;;;;5094318;28;20103;-70
2022/11/26 04:38:26;;;;;;;26.65;12.65;;;;;;;;;;5095288;28;20439;-81
2022/11/26 04:40:52;;;;;;;29.58;12.63;;;;;;;;;;5094923;28;20182;-78
2022/11/26 04:43:17;;;;;;;24.17;12.13;;;;;;;;;;5095378;28;20054;-78
2022/11/26 04:45:43;;;;;;;20.80;11.07;;;;;;;;;;5095101;28;20466;-77
2022/11/26 04:48:08;;;;;;;24.35;13.15;;;;;;;;;;5094624;28;20027;-82
2022/11/26 04:50:34;;;;;;;24.80;12.85;;;;;;;;;;5095669;28;20023;-81
2022/11/26 04:52:59;;;;;;;27.00;13.25;;;;;;;;;;5095398;28;20031;-77
2022/11/26 04:55:25;;;;;;;24.58;11.95;;;;;;;;;;5094619;28;20377;-78
2022/11/26 04:57:50;;;;;;;28.70;13.38;;;;;;;;;;5094204;28;20043;-82
2022/11/26 05:00:17;;;;;;;29.83;13.85;;;;;;;;;;5094252;28;20069;-78
2022/11/26 05:02:43;;;;;;;32.60;14.02;;;;;;;;;;5096734;28;20032;-79
2022/11/26 05:05:09;;;;;;;29.15;13.85;;;;;;;;;;5097124;28;20154;-81
2022/11/26 05:07:34;;;;;;;25.73;13.05;;;;;;;;;;5076153;28;20052;-80
2022/11/26 05:10:00;;;;;;;31.98;14.55;;;;;;;;;;5080365;28;20366;-81
2022/11/26 05:12:25;;;;;;;26.05;12.63;;;;;;;;;;5094232;28;20130;-69
2022/11/26 05:14:51;;;;;;;27.13;12.65;;;;;;;;;;5094750;28;20452;-77
2022/11/26 05:17:16;;;;;;;28.42;13.57;;;;;;;;;;5077153;28;20388;-72
2022/11/26 05:19:42;;;;;;;30.88;14.10;;;;;;;;;;5093505;28;20032;-70
2022/11/26 05:22:07;;;;;;;26.90;12.93;;;;;;;;;;5092750;28;20020;-69
2022/11/26 05:24:33;;;;;;;30.42;13.32;;;;;;;;;;5092664;28;20110;-68
2022/11/26 05:26:58;;;;;;;24.80;12.68;;;;;;;;;;5091929;28;20424;-69
2022/11/26 05:29:24;;;;;;;25.48;12.48;;;;;;;;;;5092388;28;20020;-69
2022/11/26 05:31:50;;;;;;;24.02;12.73;;;;;;;;;;5092667;28;20399;-68
2022/11/26 05:34:15;;;;;;;25.60;12.93;;;;;;;;;;5093092;28;20016;-68
2022/11/26 05:36:41;;;;;;;26.85;12.75;;;;;;;;;;5093168;28;20032;-68
2022/11/26 05:39:06;;;;;;;23.88;12.70;;;;;;;;;;5092852;28;20457;-68
2022/11/26 05:41:32;;;;;;;23.95;12.98;;;;;;;;;;5092845;28;20043;-68
2022/11/26 05:43:57;;;;;;;23.30;12.48;;;;;;;;;;5093034;28;20457;-79
2022/11/26 05:46:23;;;;;;;24.75;12.40;;;;;;;;;;5092391;28;20024;-77
2022/11/26 05:48:48;;;;;;;24.20;12.20;;;;;;;;;;5093945;28;20047;-81
2022/11/26 05:51:14;;;;;;;25.40;12.20;;;;;;;;;;5093911;28;20149;-78
2022/11/26 05:53:39;;;;;;;25.05;12.82;;;;;;;;;;5093582;28;20024;-80
2022/11/26 05:56:05;;;;;;;28.50;13.48;;;;;;;;;;5092837;28;20141;-81
2022/11/26 05:58:30;;;;;;;24.38;12.52;;;;;;;;;;5092857;28;20028;-78
2022/11/26 06:00:56;;;;;;;24.42;12.93;;;;;;;;;;5093062;28;20028;-80
2022/11/26 06:03:21;;;;;;;28.27;12.25;;;;;;;;;;5093013;28;20027;-80
2022/11/26 06:05:47;;;;;;;25.05;13.05;;;;;;;;;;5092528;28;20027;-81
2022/11/26 06:08:12;;;;;;;25.95;12.02;;;;;;;;;;5093141;28;20119;-75
2022/11/26 06:10:41;;;;;;;26.98;12.63;;;;;;;;;;5092628;28;20032;-77
2022/11/26 06:13:06;;;;;;;25.67;13.02;;;;;;;;;;5092299;28;20046;-79
2022/11/26 06:15:31;;;;;;;25.08;12.43;;;;;;;;;;5092501;28;20103;-74
2022/11/26 06:17:57;;;;;;;27.60;12.82;;;;;;;;;;5092635;28;20024;-80
2022/11/26 06:20:22;;;;;;;27.35;13.93;;;;;;;;;;5092494;28;20022;-78
2022/11/26 06:22:48;;;;;;;26.73;12.70;;;;;;;;;;5092577;28;20031;-73
2022/11/26 06:25:13;;;;;;;26.42;12.82;;;;;;;;;;5093938;28;20028;-76
2022/11/26 06:27:40;;;;;;;28.40;13.48;;;;;;;;;;5096395;28;20505;-74
2022/11/26 06:30:08;;;;;;;26.70;13.50;;;;;;;;;;5096587;28;20028;-69
2022/11/26 06:32:33;;;;;;;27.90;15.48;;;;;;;;;;5096203;28;20020;-73
2022/11/26 06:34:59;;;;;;;25.90;13.73;;;;;;;;;;5096393;28;20024;-78
2022/11/26 06:37:24;;;;;;;25.73;14.07;;;;;;;;;;5096700;28;20027;-72
2022/11/26 06:39:50;;;;;;;27.27;13.02;;;;;;;;;;5096472;28;20035;-70
2022/11/26 06:42:16;;;;;;;34.10;15.10;;;;;;;;;;5096827;28;20027;-76
2022/11/26 06:44:41;;;;;;;27.10;13.10;;;;;;;;;;5072122;28;20031;-72
2022/11/26 06:47:11;;;;;;;28.42;13.82;;;;;;;;;;5084059;28;20363;-69
2022/11/26 06:49:36;;;;;;;30.15;14.02;;;;;;;;;;5093998;28;20069;-72
2022/11/26 06:52:02;;;;;;;31.48;14.05;;;;;;;;;;5088938;28;20017;-75
2022/11/26 06:54:27;;;;;;;29.95;13.27;;;;;;;;;;5082805;28;20028;-77
2022/11/26 06:56:53;;;;;;;27.67;13.50;;;;;;;;;;5096185;28;20059;-70
2022/11/26 06:59:18;;;;;;;23.95;13.20;;;;;;;;;;5083943;28;20029;-73
2022/11/26 07:01:44;;;;;;;31.15;14.40;;;;;;;;;;5075974;28;20123;-77
2022/11/26 07:04:11;;;;;;;32.95;13.90;;;;;;;;;;5075773;28;20498;-71
2022/11/26 07:06:36;;;;;;;33.00;13.95;;;;;;;;;;5075675;28;20024;-78
2022/11/26 07:09:05;;;;;;;32.47;15.02;;;;;;;;;;5075769;28;20496;-77
2022/11/26 07:11:32;;;;;;;29.17;14.15;;;;;;;;;;5075529;28;20077;-78
2022/11/26 07:13:57;;;;;;;29.60;14.60;;;;;;;;;;5090234;28;20024;-77
2022/11/26 07:16:23;;;;;;;30.48;13.98;;;;;;;;;;5095993;28;20027;-77
2022/11/26 07:18:51;;;;;;;32.78;15.65;;;;;;;;;;5095986;28;20028;-78
2022/11/26 07:21:17;;;;;;;35.05;16.00;;;;;;;;;;5095723;28;20024;-73
2022/11/26 07:23:43;;;;;;;35.78;16.02;;;;;;;;;;5095813;28;20036;-69
2022/11/26 07:26:09;;;;;;;36.40;15.70;;;;;;;;;;5095737;28;20070;-69
2022/11/26 07:28:35;;;;;;;38.65;15.38;;;;;;;;;;5095885;28;20028;-68
2022/11/26 07:31:07;;;;;;;33.78;15.05;;;;;;;;;;5095598;28;20024;-71
2022/11/26 07:33:32;;;;;;;32.10;15.65;;;;;;;;;;5095505;28;20088;-79
2022/11/26 07:35:59;;;;;;;32.88;15.27;;;;;;;;;;5094926;28;20016;-76
2022/11/26 07:38:26;;;;;;;33.67;15.73;;;;;;;;;;5095610;28;20028;-79
2022/11/26 07:40:51;;;;;;;31.40;14.65;;;;;;;;;;5095516;28;20111;-73
2022/11/26 07:43:17;;;;;;;35.13;15.57;;;;;;;;;;5095388;28;20052;-73
2022/11/26 07:45:42;;;;;;;38.03;15.38;;;;;;;;;;5095331;28;20431;-73
2022/11/26 07:48:08;;;;;;;40.50;15.25;;;;;;;;;;5094945;28;20039;-77
2022/11/26 07:50:33;;;;;;;39.83;18.17;;;;;;;;;;5095120;28;20032;-69
2022/11/26 07:52:59;;;;;;;37.20;16.98;;;;;;;;;;5095105;28;20350;-74
2022/11/26 07:55:24;;;;;;;37.75;16.85;;;;;;;;;;5094763;28;20020;-73
2022/11/26 07:57:50;;;;;;;41.53;18.33;;;;;;;;;;5094545;28;20056;-73
2022/11/26 08:00:16;;;;;;;44.90;18.08;;;;;;;;;;5098409;28;20030;-79
2022/11/26 08:02:41;;;;;;;41.05;17.63;;;;;;;;;;5084970;28;20032;-78
2022/11/26 08:05:07;;;;;;;36.85;16.70;;;;;;;;;;5090164;28;20093;-72
2022/11/26 08:07:34;;;;;;;36.63;15.25;;;;;;;;;;5077796;28;20040;-75
2022/11/26 08:10:00;;;;;;;40.20;16.92;;;;;;;;;;5081936;28;20024;-78
2022/11/26 08:12:26;;;;;;;39.13;17.33;;;;;;;;;;5075913;28;20486;-77
2022/11/26 08:14:51;;;;;;;42.08;15.13;;;;;;;;;;5095008;28;20426;-81
2022/11/26 08:17:16;;;;;;;36.90;15.90;;;;;;;;;;5094731;28;20078;-73
2022/11/26 08:19:42;;;;;;;36.70;16.33;;;;;;;;;;5095163;28;20110;-72
2022/11/26 08:34:47;;;;;;;41.10;19.23;;;;;;;;;;5132058;27;20436;-79
2022/11/26 08:37:13;;;;;;;40.67;18.63;;;;;;;;;;5127677;27;20035;-79
2022/11/26 08:39:38;;;;;;;37.05;16.83;;;;;;;;;;5130128;27;20125;-79
2022/11/26 08:42:04;;;;;;;41.30;16.80;;;;;;;;;;5128865;27;20026;-69
2022/11/26 08:44:29;;;;;;;42.33;16.92;;;;;;;;;;5123115;28;20020;-78
2022/11/26 08:46:55;;;;;;;40.15;17.40;;;;;;;;;;5116004;27;20031;-76
2022/11/26 08:49:20;;;;;;;40.15;17.92;;;;;;;;;;5129930;27;20037;-76
2022/11/26 08:51:46;;;;;;;39.40;16.52;;;;;;;;;;5115267;27;20031;-77
2022/11/26 08:54:11;;;;;;;38.95;16.83;;;;;;;;;;5108539;28;20024;-76
2022/11/26 08:56:37;;;;;;;38.03;16.88;;;;;;;;;;5108643;28;20047;-74
2022/11/26 08:59:03;;;;;;;43.83;18.27;;;;;;;;;;5117940;28;20078;-73
2022/11/26 09:01:31;;;;;;;36.70;16.50;;;;;;;;;;5128887;27;20493;-72
2022/11/26 09:03:59;;;;;;;36.70;17.17;;;;;;;;;;5128779;27;20381;-71
2022/11/26 09:06:27;;;;;;;39.03;18.38;;;;;;;;;;5129349;27;20395;-71
2022/11/26 09:09:11;;;;;;;38.53;17.67;;;;;;;;;;5128763;27;20019;-70
2022/11/26 09:11:52;;;;;;;37.58;17.88;;;;;;;;;;5129026;27;20080;-72
2022/11/26 09:14:21;;;;;;;39.95;18.15;;;;;;;;;;5128902;27;20104;-70
2022/11/26 09:16:47;;;;;;;40.47;17.77;;;;;;;;;;5128785;27;20035;-71
2022/11/26 09:19:13;;;;;;;40.92;18.25;;;;;;;;;;5128766;27;20389;-72
2022/11/26 09:21:39;;;;;;;45.15;19.40;;;;;;;;;;5128752;27;20243;-72
2022/11/26 09:24:05;;;;;;;42.50;19.42;;;;;;;;;;5128176;27;20572;-71
2022/11/26 09:26:31;;;;;;;53.60;26.95;;;;;;;;;;5128696;27;20038;-77
2022/11/26 09:28:57;;;;;;;45.17;19.23;;;;;;;;;;5128403;27;20102;-74
2022/11/26 09:31:23;;;;;;;41.22;17.42;;;;;;;;;;5128592;27;20122;-74
2022/11/26 09:33:49;;;;;;;36.15;17.60;;;;;;;;;;5125612;27;20043;-73
2022/11/26 09:36:16;;;;;;;32.72;15.73;;;;;;;;;;5108563;28;20060;-72
2022/11/26 09:38:41;;;;;;;37.70;15.35;;;;;;;;;;5093948;28;20051;-73
2022/11/26 09:41:36;;;;;;;35.47;15.27;;;;;;;;;;5093985;28;20440;-71
2022/11/26 09:44:21;;;;;;;38.00;15.38;;;;;;;;;;5094000;28;20027;-70
2022/11/26 09:47:11;;;;;;;33.72;15.63;;;;;;;;;;5094228;28;20531;-71
2022/11/26 09:49:57;;;;;;;30.10;13.68;;;;;;;;;;5094229;28;20027;-70
2022/11/26 09:52:27;;;;;;;31.02;14.77;;;;;;;;;;5093828;28;20024;-74
2022/11/26 09:55:07;;;;;;;32.38;15.93;;;;;;;;;;5093847;28;20027;-74
2022/11/26 09:57:41;;;;;;;33.22;15.00;;;;;;;;;;5093995;28;20031;-73
2022/11/26 10:00:23;;;;;;;30.20;14.88;;;;;;;;;;5112656;28;20359;-75
2022/11/26 10:02:56;;;;;;;31.77;15.32;;;;;;;;;;5114038;28;20106;-73
2022/11/26 10:05:30;;;;;;;29.20;14.52;;;;;;;;;;5114014;28;20389;-71
2022/11/26 10:07:59;;;;;;;29.55;15.90;;;;;;;;;;5113969;28;20012;-72
2022/11/26 10:10:31;;;;;;;36.15;15.90;;;;;;;;;;5114294;28;20030;-71
2022/11/26 10:13:07;;;;;;;32.67;15.88;;;;;;;;;;5114102;28;20023;-73
2022/11/26 10:15:44;;;;;;;36.78;16.38;;;;;;;;;;5113933;28;20031;-70
2022/11/26 10:18:30;;;;;;;35.47;17.83;;;;;;;;;;5113896;28;20026;-71
2022/11/26 10:21:16;;;;;;;35.78;17.48;;;;;;;;;;5113645;28;20476;-72
2022/11/26 10:24:05;;;;;;;26.83;13.43;;;;;;;;;;5113625;28;20035;-75
2022/11/26 10:26:40;;;;;;;27.10;13.98;;;;;;;;;;5113534;28;20122;-71
2022/11/26 10:29:22;;;;;;;25.95;12.70;;;;;;;;;;5113637;28;20055;-71
2022/11/26 10:31:53;;;;;;;29.23;13.98;;;;;;;;;;5113505;28;20040;-73
2022/11/26 10:34:38;;;;;;;29.70;14.73;;;;;;;;;;5113673;28;20130;-74
2022/11/26 10:37:04;;;;;;;51.75;19.50;;;;;;;;;;5112100;28;20027;-73
2022/11/26 10:39:29;;;;;;;34.08;16.02;;;;;;;;;;5113593;28;20037;-73
2022/11/26 10:41:55;;;;;;;27.98;14.75;;;;;;;;;;5113462;28;20497;-75
2022/11/26 10:44:39;;;;;;;42.05;21.08;;;;;;;;;;5112979;28;20034;-73
2022/11/26 10:47:30;;;;;;;29.95;16.25;;;;;;;;;;5112426;28;20077;-72
2022/11/26 10:49:55;;;;;;;;;;;;;;;;;;5112137;28;20026;-73
2022/11/26 10:52:25;;;;;;;20.33;10.90;;;;;;;;;;5113159;28;19911;-72
2022/11/26 10:55:15;;;;;;;21.40;10.80;;;;;;;;;;5105469;28;20051;-72
2022/11/26 10:57:46;;;;;;;22.48;11.18;;;;;;;;;;5093776;27;20085;-73
2022/11/26 11:00:26;;;;;;;21.27;11.02;;;;;;;;;;5091766;28;20504;-76
2022/11/26 11:02:52;;;;;;;18.63;10.30;;;;;;;;;;5092530;28;20055;-73
2022/11/26 11:05:19;;;;;;;17.17;9.63;;;;;;;;;;5091836;28;20520;-73
2022/11/26 11:07:45;;;;;;;21.20;10.82;;;;;;;;;;5090626;28;20032;-73
2022/11/26 11:10:10;;;;;;;20.15;11.80;;;;;;;;;;5092261;28;20074;-73
2022/11/26 11:12:59;;;;;;;22.02;12.32;;;;;;;;;;5092272;28;20473;-72
2022/11/26 11:15:28;;;;;;;19.08;10.50;;;;;;;;;;5092130;28;20031;-74
2022/11/26 11:18:02;;;;;;;45.00;21.30;;;;;;;;;;5092125;28;20478;-73
2022/11/26 11:20:36;;;;;;;27.52;13.52;;;;;;;;;;5091961;28;20028;-72
2022/11/26 11:23:11;;;;;;;16.02;9.13;;;;;;;;;;5091533;28;20474;-72
2022/11/26 11:25:44;;;;;;;18.10;10.00;;;;;;;;;;5101160;28;20096;-70
2022/11/26 11:28:20;;;;;;;16.85;9.98;;;;;;;;;;5112493;28;20042;-77
2022/11/26 11:30:55;;;;;;;22.35;10.52;;;;;;;;;;5110801;28;20055;-74
2022/11/26 11:33:27;;;;;;;19.80;10.77;;;;;;;;;;5111812;28;20040;-75
2022/11/26 11:36:15;;;;;;;18.60;9.90;;;;;;;;;;5112203;28;20023;-77
2022/11/26 11:39:00;;;;;;;16.42;8.90;;;;;;;;;;5112154;28;20042;-74
2022/11/26 11:41:30;;;;;;;17.67;10.40;;;;;;;;;;5112167;28;20024;-75
2022/11/26 11:44:11;;;;;;;;;;;;;;;;;;5112371;28;20032;-72
2022/11/26 11:46:51;;;;;;;19.70;10.65;;;;;;;;;;5112066;28;20284;-74
2022/11/26 11:49:52;;;;;;;21.27;11.25;;;;;;;;;;5111848;28;20028;-72
2022/11/26 11:52:35;;;;;;;42.53;18.20;;;;;;;;;;5111543;28;20069;-74
2022/11/26 11:55:09;;;;;;;44.25;21.73;;;;;;;;;;5111861;28;20521;-73
2022/11/26 11:57:37;;;;;;;32.55;16.95;;;;;;;;;;5111617;28;20027;-73
2022/11/26 12:00:14;;;;;;;23.63;11.52;;;;;;;;;;5111772;28;20035;-74
2022/11/26 12:02:42;;;;;;;18.42;9.57;;;;;;;;;;5111700;28;20484;-73
2022/11/26 12:05:26;;;;;;;18.23;10.77;;;;;;;;;;5111439;28;20081;-73
2022/11/26 12:08:13;;;;;;;21.98;11.65;;;;;;;;;;5111716;28;20024;-74
2022/11/26 12:11:06;;;;;;;17.35;9.65;;;;;;;;;;5111685;28;20057;-74
2022/11/26 12:13:44;;;;;;;22.23;10.05;;;;;;;;;;5111482;28;20038;-74
2022/11/26 12:16:11;;;;;;;18.50;9.18;;;;;;;;;;5111480;28;20103;-74
2022/11/26 12:18:52;;;;;;;19.25;8.98;;;;;;;;;;5111399;28;20126;-74
2022/11/26 12:21:44;;;;;;;19.40;10.18;;;;;;;;;;5111211;28;20389;-74
2022/11/26 12:24:22;;;;;;;17.90;8.48;;;;;;;;;;5105534;28;20042;-74
2022/11/26 12:26:52;;;;;;;18.08;8.57;;;;;;;;;;5110755;28;20104;-74
2022/11/26 12:29:42;;;;;;;15.98;6.93;;;;;;;;;;5111574;28;20036;-74
2022/11/26 12:32:11;;;;;;;16.98;7.22;;;;;;;;;;5111804;28;20020;-74
2022/11/26 12:34:46;;;;;;;19.30;7.70;;;;;;;;;;5110872;28;20044;-74
2022/11/26 12:37:32;;;;;;;17.52;7.88;;;;;;;;;;5111631;28;20386;-74
2022/11/26 12:40:26;;;;;;;19.70;8.45;;;;;;;;;;5111669;28;20387;-74
2022/11/26 12:42:58;;;;;;;40.20;18.75;;;;;;;;;;5111487;28;20050;-74
2022/11/26 12:45:48;;;;;;;24.23;11.13;;;;;;;;;;5109961;28;20026;-75
2022/11/26 12:48:37;;;;;;;53.17;23.63;;;;;;;;;;5109651;28;20419;-69
2022/11/26 12:51:18;;;;;;;62.28;29.55;;;;;;;;;;5110996;28;20399;-69
2022/11/26 12:54:08;;;;;;;47.17;24.40;;;;;;;;;;5111653;28;20034;-69
2022/11/26 12:56:34;;;;;;;31.23;16.08;;;;;;;;;;5111432;28;20031;-68
2022/11/26 12:59:10;;;;;;;44.65;20.95;;;;;;;;;;5111662;28;20020;-68
2022/11/26 13:01:36;;;;;;;41.85;15.60;;;;;;;;;;5111260;28;20358;-63
2022/11/26 13:04:02;;;;;;;25.60;11.38;;;;;;;;;;5110393;28;20028;-67
2022/11/26 13:06:58;;;;;;;35.75;19.27;;;;;;;;;;5111584;28;20026;-67
2022/11/26 13:09:43;;;;;;;24.75;10.20;;;;;;;;;;5112018;28;20020;-67
2022/11/26 13:12:50;;;;;;;31.60;11.57;;;;;;;;;;5115117;28;20027;-68
2022/11/26 13:15:24;;;;;;;22.08;9.45;;;;;;;;;;5114873;28;20054;-66
2022/11/26 13:17:51;;;;;;;24.27;10.75;;;;;;;;;;5114521;28;20051;-71
2022/11/26 13:20:53;;;;;;;32.15;11.38;;;;;;;;;;5115030;28;20381;-72
2022/11/26 13:23:28;;;;;;;25.75;10.93;;;;;;;;;;5115097;28;20040;-68
2022/11/26 13:26:11;;;;;;;24.15;10.55;;;;;;;;;;5114677;28;20077;-70
2022/11/26 13:28:58;;;;;;;23.40;10.07;;;;;;;;;;5114645;28;20031;-70
2022/11/26 13:31:43;;;;;;;27.15;10.52;;;;;;;;;;5114801;28;20028;-65
2022/11/26 13:34:40;;;;;;;24.83;10.55;;;;;;;;;;5114007;28;20054;-66
2022/11/26 13:37:36;;;;;;;24.65;9.98;;;;;;;;;;5114562;28;20032;-68
2022/11/26 13:40:44;;;;;;;24.27;10.73;;;;;;;;;;5114591;28;20474;-69
2022/11/26 13:43:19;;;;;;;29.80;13.20;;;;;;;;;;5104438;28;20040;-68
2022/11/26 13:46:07;;;;;;;30.50;13.95;;;;;;;;;;5114445;27;20497;-66
2022/11/26 13:48:59;;;;;;;32.65;15.02;;;;;;;;;;5113787;28;20019;-66
2022/11/26 13:51:42;;;;;;;32.25;14.82;;;;;;;;;;5114202;28;20026;-67
2022/11/26 13:54:15;;;;;;;38.45;16.33;;;;;;;;;;5114297;28;20058;-66
2022/11/26 13:56:44;;;;;;;41.65;17.15;;;;;;;;;;5114228;28;20020;-67
2022/11/26 13:59:18;;;;;;;40.83;18.05;;;;;;;;;;5113948;28;20386;-69
2022/11/26 14:01:44;;;;;;;42.20;18.10;;;;;;;;;;5113428;28;20103;-65
2022/11/26 14:04:12;;;;;;;40.88;16.85;;;;;;;;;;5113645;28;20558;-66
2022/11/26 14:07:04;;;;;;;35.85;16.05;;;;;;;;;;5113725;28;20105;-66
2022/11/26 14:09:53;;;;;;;34.05;15.80;;;;;;;;;;5113544;28;20537;-67
2022/11/26 14:12:20;;;;;;;38.10;16.05;;;;;;;;;;5113660;28;20114;-68
2022/11/26 14:14:47;;;;;;;38.25;16.45;;;;;;;;;;5111388;28;20104;-67
2022/11/26 14:17:18;;;;;;;36.85;17.60;;;;;;;;;;5111990;28;20036;-70
2022/11/26 14:19:44;;;;;;;40.08;17.33;;;;;;;;;;5112063;28;20080;-76
2022/11/26 14:22:19;;;;;;;40.50;16.92;;;;;;;;;;5112337;28;20099;-74
2022/11/26 14:24:47;;;;;;;42.90;16.77;;;;;;;;;;5112102;28;20259;-74
2022/11/26 14:27:16;;;;;;;37.13;16.10;;;;;;;;;;5112408;28;20149;-74
2022/11/26 14:29:43;;;;;;;46.45;18.63;;;;;;;;;;5112122;28;20027;-75
2022/11/26 14:32:22;;;;;;;44.40;19.30;;;;;;;;;;5111847;28;20024;-75
2022/11/26 14:34:52;;;;;;;48.92;19.95;;;;;;;;;;5112286;28;20047;-77
2022/11/26 14:37:23;;;;;;;58.70;20.30;;;;;;;;;;5112556;28;20116;-76
2022/11/26 14:40:18;;;;;;;52.38;20.63;;;;;;;;;;5112275;28;20031;-69
2022/11/26 14:42:44;;;;;;;45.88;20.35;;;;;;;;;;5098412;28;20020;-68
2022/11/26 14:45:21;;;;;;;54.25;21.15;;;;;;;;;;5092229;28;20530;-70
2022/11/26 14:47:50;;;;;;;53.15;21.50;;;;;;;;;;5092584;28;20016;-69
2022/11/26 14:50:20;;;;;;;58.15;26.70;;;;;;;;;;5092827;28;20382;-70
2022/11/26 14:52:53;;;;;;;61.92;28.17;;;;;;;;;;5092558;28;20024;-69
2022/11/26 14:55:26;;;;;;;51.20;22.80;;;;;;;;;;5092899;28;20462;-67